Royer Lake, Indiana
Current Conditions -  °F | °C
As of 11:14 AM on Wednesday 26 Nov 2014 (Local Time) from KIRS Reporting Station
Overcast Overcast  
Wind Chill: 20°   Ceiling: 1900
Heat Index: 27°   Visibility: 10mi
Dew Point: 21°   Wind: 6mph
Humidity: 80%   Direction: 110°ESE
Pressure: 30.14"   Gusts: NA
Location:  41.6561°N, 85.3683°W
Report Text: KIRS 261614Z AUTO 11005KT 10SM OVC019 M03/M06 A3014 RMK AO2
Loading
Personal Weather Stations






























Interactive Weather Map New forecast layout! Learn more

10-Day Weather Forecast

Advertisements
Track Severe Weather on mobile